Time;durP1;ratioP1;P1;durP2;ratioP2;P2;SDS_P1;SDS_P2;PMS_P1;PMS_P2;Temp;Humidity;BMP_temperature;BMP_pressure;BME280_temperature;BME280_humidity;BME280_pressure;Samples;Min_cycle;Max_cycle;Signal;HPM_P1;HPM_P2
2022/08/15 00:01:14;;;;;;;13.00;11.20;;;18.80;99.90;;;;;;5030302;28;20033;-42
2022/08/15 00:03:45;;;;;;;10.95;9.80;;;18.80;99.90;;;;;;5029475;28;20085;-41
2022/08/15 00:06:14;;;;;;;13.57;9.63;;;18.80;99.90;;;;;;5029926;28;20072;-40
2022/08/15 00:08:48;;;;;;;10.52;8.90;;;18.80;99.90;;;;;;5028032;28;20065;-42
2022/08/15 00:11:19;;;;;;;12.52;10.20;;;18.70;99.90;;;;;;5029297;28;20087;-41
2022/08/15 00:13:57;;;;;;;11.23;10.05;;;18.70;99.90;;;;;;5028805;28;20518;-42
2022/08/15 00:16:23;;;;;;;15.27;10.70;;;18.70;99.90;;;;;;5029421;28;20049;-42
2022/08/15 00:18:49;;;;;;;12.05;10.70;;;18.60;99.90;;;;;;5028875;28;20045;-43
2022/08/15 00:21:20;;;;;;;11.23;10.07;;;18.60;99.90;;;;;;5029379;28;20037;-42
2022/08/15 00:23:47;;;;;;;13.37;11.50;;;18.60;99.90;;;;;;5029033;28;20076;-42
2022/08/15 00:26:13;;;;;;;12.65;11.20;;;18.50;99.90;;;;;;5028936;28;20461;-40
2022/08/15 00:28:39;;;;;;;13.73;11.07;;;18.50;99.90;;;;;;5028816;28;20124;-42
2022/08/15 00:31:08;;;;;;;15.85;12.45;;;20.30;99.90;;;;;;5028768;28;20134;-42
2022/08/15 00:33:34;;;;;;;15.30;13.73;;;18.60;99.90;;;;;;5028747;28;20130;-42
2022/08/15 00:36:00;;;;;;;15.77;13.85;;;18.70;99.90;;;;;;5028370;28;20045;-40
2022/08/15 00:38:29;;;;;;;16.50;14.95;;;18.80;99.90;;;;;;5028620;28;20215;-42
2022/08/15 00:43:53;;;;;;;17.48;14.77;;;19.00;99.90;;;;;;5028394;28;20092;-41
2022/08/15 00:46:19;;;;;;;24.50;13.75;;;19.00;99.90;;;;;;5028453;28;20049;-42
2022/08/15 00:48:46;;;;;;;20.58;14.35;;;19.00;99.90;;;;;;5010414;28;20046;-41
2022/08/15 00:51:35;;;;;;;22.92;13.80;;;19.10;99.90;;;;;;5028967;28;20099;-41
2022/08/15 00:54:08;;;;;;;18.08;14.23;;;19.10;99.90;;;;;;5029000;28;20048;-42
2022/08/15 00:56:49;;;;;;;16.52;14.82;;;19.30;99.90;;;;;;5028505;28;20099;-41
2022/08/15 00:59:21;;;;;;;16.65;15.02;;;19.00;99.90;;;;;;5028557;28;20120;-40
2022/08/15 01:01:47;;;;;;;17.05;14.20;;;19.00;99.90;;;;;;5027869;28;20077;-41
2022/08/15 01:04:15;;;;;;;16.42;14.82;;;18.90;99.90;;;;;;5028168;28;20154;-40
2022/08/15 01:06:41;;;;;;;16.73;13.80;;;18.90;99.90;;;;;;5028397;28;20352;-41
2022/08/15 01:09:09;;;;;;;15.60;14.00;;;18.80;99.90;;;;;;5027650;28;20392;-42
2022/08/15 01:11:42;;;;;;;15.20;13.68;;;19.10;99.90;;;;;;5028397;28;20079;-40
2022/08/15 01:14:08;;;;;;;16.90;14.10;;;19.10;99.90;;;;;;5028548;28;20372;-41
2022/08/15 01:16:38;;;;;;;15.07;13.68;;;18.80;99.90;;;;;;5028538;28;20511;-40
2022/08/15 01:19:11;;;;;;;15.55;13.95;;;18.70;99.90;;;;;;5028679;28;20049;-41
2022/08/15 01:22:00;;;;;;;14.77;13.27;;;18.70;99.90;;;;;;5029043;28;20049;-40
2022/08/15 01:24:50;;;;;;;23.13;14.55;;;18.70;99.90;;;;;;5028349;28;20124;-41
2022/08/15 01:27:18;;;;;;;20.38;14.52;;;18.60;99.90;;;;;;5028225;28;20054;-41
2022/08/15 01:29:44;;;;;;;21.90;14.63;;;18.60;99.90;;;;;;5027927;28;20053;-42
2022/08/15 01:32:09;;;;;;;20.15;14.48;;;18.60;99.90;;;;;;5027701;28;20041;-41
2022/08/15 01:34:35;;;;;;;16.52;14.43;;;18.60;99.90;;;;;;5027517;28;20048;-42
2022/08/15 01:37:03;;;;;;;18.20;14.13;;;18.70;99.90;;;;;;5027673;28;20045;-40
2022/08/15 01:39:38;;;;;;;16.42;14.30;;;18.70;99.90;;;;;;5027557;28;20060;-42
2022/08/15 01:42:21;;;;;;;30.30;15.45;;;18.80;99.90;;;;;;5027286;28;20579;-41
2022/08/15 01:45:08;;;;;;;18.85;14.02;;;18.90;99.90;;;;;;5027599;28;20041;-41
2022/08/15 01:47:41;;;;;;;20.17;13.48;;;19.00;99.90;;;;;;5027615;28;20049;-40
2022/08/15 01:50:10;;;;;;;16.17;12.40;;;19.00;99.90;;;;;;5027128;28;20049;-42
2022/08/15 01:52:52;;;;;;;14.27;12.73;;;19.00;99.90;;;;;;5027357;28;20480;-40
2022/08/15 01:55:20;;;;;;;18.02;12.13;;;19.20;99.90;;;;;;5027753;28;20037;-40
2022/08/15 01:57:46;;;;;;;17.45;12.90;;;19.00;99.90;;;;;;5027447;28;20399;-42
2022/08/15 02:00:15;;;;;;;15.80;12.10;;;19.00;99.90;;;;;;5027310;28;20049;-42
2022/08/15 02:02:41;;;;;;;16.15;12.85;;;19.00;99.90;;;;;;5027636;28;20068;-41
2022/08/15 02:05:07;;;;;;;14.43;12.07;;;18.90;99.90;;;;;;5026783;28;20506;-40
2022/08/15 02:07:33;;;;;;;14.80;13.15;;;18.90;99.90;;;;;;5008959;28;20064;-41
2022/08/15 02:09:59;;;;;;;12.55;11.35;;;18.80;99.90;;;;;;5026333;28;20057;-41
2022/08/15 02:12:34;;;;;;;14.82;12.85;;;18.80;99.90;;;;;;5026930;28;20124;-40
2022/08/15 02:15:02;;;;;;;15.68;13.00;;;18.70;99.90;;;;;;5025463;28;20046;-40
2022/08/15 02:17:28;;;;;;;16.27;13.30;;;18.70;99.90;;;;;;5026518;28;20041;-41
2022/08/15 02:19:54;;;;;;;13.88;12.57;;;18.70;99.90;;;;;;5026674;28;20049;-41
2022/08/15 02:22:23;;;;;;;15.15;13.32;;;18.70;99.90;;;;;;5027053;28;20043;-41
2022/08/15 02:24:49;;;;;;;15.05;12.30;;;18.60;99.90;;;;;;5026969;28;20169;-42
2022/08/15 02:27:15;;;;;;;15.32;13.75;;;18.70;99.90;;;;;;5026678;28;20096;-40
2022/08/15 02:29:42;;;;;;;15.23;13.75;;;18.70;99.90;;;;;;5026998;28;20451;-40
2022/08/15 02:32:12;;;;;;;15.30;13.77;;;18.80;99.90;;;;;;5026675;28;20446;-40
2022/08/15 02:34:40;;;;;;;14.63;13.23;;;18.80;99.90;;;;;;5026509;28;20219;-41
2022/08/15 02:37:08;;;;;;;15.10;13.57;;;18.90;99.90;;;;;;5026320;28;20396;-42
2022/08/15 02:39:34;;;;;;;19.95;14.73;;;18.80;99.90;;;;;;5026039;28;20506;-41
2022/08/15 02:42:00;;;;;;;17.45;14.05;;;18.80;99.90;;;;;;5025943;28;20099;-41
2022/08/15 02:44:26;;;;;;;19.83;15.38;;;18.80;99.90;;;;;;5026280;28;20053;-41
2022/08/15 02:46:54;;;;;;;21.70;14.70;;;18.80;99.90;;;;;;5026585;28;20063;-42
2022/08/15 02:49:23;;;;;;;15.98;14.32;;;18.90;99.90;;;;;;5026207;28;20072;-40
2022/08/15 02:51:49;;;;;;;15.88;13.93;;;18.90;99.90;;;;;;5026666;28;20328;-41
2022/08/15 02:54:18;;;;;;;16.25;14.30;;;18.90;99.90;;;;;;5026860;28;20076;-42
2022/08/15 02:56:44;;;;;;;16.85;14.95;;;19.20;99.90;;;;;;5026387;28;20045;-41
2022/08/15 02:59:10;;;;;;;15.32;13.18;;;19.00;99.90;;;;;;5026352;28;20083;-41
2022/08/15 03:01:40;;;;;;;18.95;14.48;;;19.00;99.90;;;;;;5026818;28;20095;-41
2022/08/15 03:04:09;;;;;;;17.63;15.27;;;18.90;99.90;;;;;;5026368;28;20474;-40
2022/08/15 03:06:37;;;;;;;16.92;14.27;;;18.90;99.90;;;;;;5026541;28;20566;-41
2022/08/15 03:09:06;;;;;;;15.27;13.88;;;18.70;99.90;;;;;;5026116;28;20061;-41
2022/08/15 03:11:38;;;;;;;14.80;13.40;;;18.70;99.90;;;;;;5026257;28;20066;-42
2022/08/15 03:14:07;;;;;;;16.95;14.52;;;18.70;99.90;;;;;;5025766;28;20065;-40
2022/08/15 03:16:36;;;;;;;15.18;13.57;;;18.60;99.90;;;;;;5026025;28;20123;-40
2022/08/15 03:19:02;;;;;;;22.25;14.38;;;18.50;99.90;;;;;;5007556;28;20460;-41
2022/08/15 03:21:28;;;;;;;16.05;13.90;;;18.50;99.90;;;;;;5025626;28;20049;-40
2022/08/15 03:23:53;;;;;;;16.73;14.65;;;18.40;99.90;;;;;;5025717;28;20053;-41
2022/08/15 03:26:24;;;;;;;16.65;13.27;;;18.30;99.90;;;;;;5011116;28;20049;-41
2022/08/15 03:28:50;;;;;;;16.00;13.50;;;18.30;99.90;;;;;;5030173;28;20046;-41
2022/08/15 03:31:16;;;;;;;15.18;13.68;;;18.20;99.90;;;;;;5030189;28;20044;-39
2022/08/15 03:33:46;;;;;;;16.85;14.85;;;18.20;99.90;;;;;;5030568;28;20037;-41
2022/08/15 03:36:17;;;;;;;16.02;14.43;;;18.10;99.90;;;;;;5029835;28;20116;-40
2022/08/15 03:38:45;;;;;;;16.48;14.88;;;18.00;99.90;;;;;;5029874;28;20122;-40
2022/08/15 03:41:13;;;;;;;17.48;15.70;;;18.00;99.90;;;;;;5029370;28;20483;-41
2022/08/15 03:43:39;;;;;;;18.05;15.32;;;17.90;99.90;;;;;;5029491;28;20590;-40
2022/08/15 03:46:17;;;;;;;18.48;16.05;;;17.80;99.90;;;;;;5029921;28;20120;-40
2022/08/15 03:48:49;;;;;;;22.20;15.68;;;17.70;99.90;;;;;;5029484;28;20617;-41
2022/08/15 03:51:16;;;;;;;;;;;17.70;99.90;;;;;;5011968;28;20128;-40
2022/08/15 03:53:52;;;;;;;16.88;14.32;;;17.60;99.90;;;;;;5030259;28;20286;-41
2022/08/15 03:56:21;;;;;;;14.60;13.00;;;17.60;99.90;;;;;;5029345;28;20042;-41
2022/08/15 03:58:48;;;;;;;15.05;13.50;;;17.50;99.90;;;;;;5030016;28;20591;-40
2022/08/15 04:01:20;;;;;;;16.10;14.38;;;17.50;99.90;;;;;;5012266;28;20122;-41
2022/08/15 04:03:48;;;;;;;14.85;13.45;;;17.50;99.90;;;;;;5030304;28;20060;-42
2022/08/15 04:06:18;;;;;;;18.73;15.95;;;17.40;99.90;;;;;;5029613;28;20120;-42
2022/08/15 04:08:47;;;;;;;17.60;15.70;;;17.40;99.90;;;;;;5029674;28;20064;-41
2022/08/15 04:11:14;;;;;;;16.88;14.52;;;17.40;99.90;;;;;;5029295;28;20073;-40
2022/08/15 04:13:41;;;;;;;19.05;15.70;;;17.40;99.90;;;;;;5029146;28;20041;-41
2022/08/15 04:16:07;;;;;;;17.60;15.80;;;17.40;99.90;;;;;;5029307;28;20122;-41
2022/08/15 04:18:34;;;;;;;17.92;15.15;;;17.50;99.90;;;;;;5029448;28;20040;-41
2022/08/15 04:21:04;;;;;;;18.13;15.68;;;17.50;99.90;;;;;;5029944;28;20380;-41
2022/08/15 04:23:30;;;;;;;17.45;15.65;;;17.50;99.90;;;;;;5029282;28;20041;-40
2022/08/15 04:25:56;;;;;;;18.45;16.48;;;17.50;99.90;;;;;;5029083;28;20158;-41
2022/08/15 04:28:24;;;;;;;20.65;17.80;;;17.50;99.90;;;;;;5028935;28;20443;-40
2022/08/15 04:30:50;;;;;;;18.40;16.50;;;17.40;99.90;;;;;;5010653;28;20077;-41
2022/08/15 04:33:24;;;;;;;19.63;17.25;;;17.60;99.90;;;;;;5028724;28;20076;-40
2022/08/15 04:35:53;;;;;;;18.60;15.98;;;17.50;99.90;;;;;;5028463;28;20509;-41
2022/08/15 04:38:19;;;;;;;18.67;16.73;;;17.40;99.90;;;;;;5027689;28;20081;-40
2022/08/15 04:40:47;;;;;;;19.60;17.15;;;17.50;99.90;;;;;;5028749;28;20452;-40
2022/08/15 04:43:13;;;;;;;17.88;16.13;;;17.50;99.90;;;;;;5028568;28;20045;-40
2022/08/15 04:45:40;;;;;;;17.90;15.98;;;17.60;99.90;;;;;;5028386;28;20049;-40
2022/08/15 04:48:07;;;;;;;18.10;14.88;;;17.70;99.90;;;;;;5028489;28;20124;-40
2022/08/15 04:50:37;;;;;;;21.38;15.02;;;17.70;99.90;;;;;;5028379;28;20060;-41
2022/08/15 04:53:04;;;;;;;20.13;15.07;;;17.80;99.90;;;;;;5028812;28;20041;-40
2022/08/15 04:55:30;;;;;;;20.83;14.68;;;17.90;99.90;;;;;;5028763;28;20120;-41
2022/08/15 04:57:58;;;;;;;17.60;14.63;;;17.90;99.90;;;;;;5028934;28;20364;-40
2022/08/15 05:00:31;;;;;;;19.73;14.65;;;18.10;99.90;;;;;;5028265;28;20594;-40
2022/08/15 05:03:08;;;;;;;18.15;14.98;;;18.20;99.90;;;;;;5028359;28;20095;-41
2022/08/15 05:05:37;;;;;;;26.50;16.73;;;18.30;99.90;;;;;;5028271;28;20120;-41
2022/08/15 05:08:03;;;;;;;22.95;13.98;;;18.50;99.90;;;;;;5028195;28;20492;-42
2022/08/15 05:10:30;;;;;;;23.52;16.05;;;18.60;99.90;;;;;;5027621;28;20050;-42
2022/08/15 05:12:55;;;;;;;16.15;14.50;;;18.60;99.90;;;;;;5028034;28;20050;-41
2022/08/15 05:15:22;;;;;;;15.75;14.25;;;18.70;99.90;;;;;;5028029;28;20091;-41
2022/08/15 05:17:49;;;;;;;17.30;14.68;;;18.80;99.90;;;;;;5028097;28;20050;-40
2022/08/15 05:20:19;;;;;;;18.35;15.05;;;18.80;99.90;;;;;;5028015;28;20041;-40
2022/08/15 05:22:57;;;;;;;15.27;13.73;;;19.00;99.90;;;;;;5027695;28;20053;-40
2022/08/15 05:25:23;;;;;;;15.07;12.88;;;19.20;99.90;;;;;;5027509;28;20085;-41
2022/08/15 05:27:49;;;;;;;16.10;14.45;;;19.20;99.90;;;;;;5027933;28;20045;-40
2022/08/15 05:30:15;;;;;;;18.15;14.55;;;19.20;99.90;;;;;;5027819;28;20057;-42
2022/08/15 05:32:41;;;;;;;16.50;14.85;;;19.30;99.90;;;;;;5027758;28;20126;-40
2022/08/15 05:35:07;;;;;;;15.55;14.05;;;19.30;99.90;;;;;;5027881;28;20069;-41
2022/08/15 05:37:33;;;;;;;15.95;14.27;;;19.40;99.90;;;;;;5027726;28;20544;-40
2022/08/15 05:40:03;;;;;;;14.88;13.10;;;19.50;99.90;;;;;;5027567;28;20045;-42
2022/08/15 05:43:00;;;;;;;15.35;13.85;;;19.50;99.90;;;;;;5027321;28;20046;-42
2022/08/15 05:46:01;;;;;;;14.90;13.50;;;19.60;99.90;;;;;;5027074;28;20396;-41
2022/08/15 05:48:32;;;;;;;16.23;13.30;;;19.70;99.90;;;;;;5026353;28;20046;-40
2022/08/15 05:51:27;;;;;;;18.13;13.55;;;19.70;99.90;;;;;;5026974;28;20261;-41
2022/08/15 05:53:59;;;;;;;16.40;13.70;;;19.80;99.90;;;;;;5027271;28;20048;-41
2022/08/15 05:56:46;;;;;;;16.73;13.75;;;19.90;99.90;;;;;;5027317;28;20517;-41
2022/08/15 05:59:15;;;;;;;14.52;13.00;;;20.00;99.90;;;;;;5027817;28;20045;-41
2022/08/15 06:01:49;;;;;;;15.13;13.52;;;20.00;99.90;;;;;;5027044;28;20049;-40
2022/08/15 06:04:49;;;;;;;14.88;13.32;;;20.00;99.90;;;;;;5027672;28;20049;-42
2022/08/15 06:07:17;;;;;;;16.45;12.95;;;20.10;99.90;;;;;;5028170;28;20518;-41
2022/08/15 06:09:50;;;;;;;15.35;13.70;;;20.10;99.90;;;;;;5026941;28;20149;-41
2022/08/15 06:12:28;;;;;;;18.75;14.13;;;20.20;99.90;;;;;;5027122;28;20053;-41
2022/08/15 06:15:19;;;;;;;15.27;13.73;;;20.30;99.90;;;;;;5026672;28;20100;-40
2022/08/15 06:17:50;;;;;;;14.95;13.48;;;20.40;99.90;;;;;;5026525;28;20049;-42
2022/08/15 06:20:21;;;;;;;14.45;13.05;;;20.50;99.90;;;;;;5026815;28;20080;-42
2022/08/15 06:22:49;;;;;;;15.07;13.52;;;20.70;99.90;;;;;;5026668;28;20037;-40
2022/08/15 06:25:21;;;;;;;16.98;13.30;;;20.80;99.90;;;;;;5026547;28;20045;-41
2022/08/15 06:27:58;;;;;;;;;;;20.80;99.90;;;;;;5027331;28;20104;-42
2022/08/15 06:30:56;;;;;;;15.93;14.35;;;20.90;99.90;;;;;;5027001;28;19927;-40
2022/08/15 06:33:40;;;;;;;16.95;15.10;;;21.10;99.90;;;;;;5021566;28;20072;-41
2022/08/15 06:36:44;;;;;;;14.90;13.43;;;21.20;99.90;;;;;;5026853;28;20037;-41
2022/08/15 06:39:20;;;;;;;19.38;13.32;;;21.40;99.90;;;;;;4976037;28;20049;-41
2022/08/15 06:42:34;;;;;;;18.20;14.85;;;21.60;99.90;;;;;;5008166;28;20472;-40
2022/08/15 06:45:04;;;;;;;19.88;14.07;;;21.80;99.90;;;;;;5007343;28;20534;-41
2022/08/15 06:47:32;;;;;;;20.00;15.65;;;22.00;99.90;;;;;;5026263;28;20533;-42
2022/08/15 06:50:05;;;;;;;18.25;15.60;;;22.10;99.90;;;;;;5026501;28;20041;-41
2022/08/15 06:52:31;;;;;;;25.35;15.05;;;22.20;99.90;;;;;;5025946;28;20052;-42
2022/08/15 06:54:59;;;;;;;23.05;14.57;;;22.20;99.90;;;;;;5025776;28;20041;-41
2022/08/15 06:57:31;;;;;;;19.10;15.68;;;22.30;99.90;;;;;;5026230;28;20069;-42
2022/08/15 07:00:14;;;;;;;17.30;15.40;;;22.30;99.90;;;;;;5025443;28;20045;-42
2022/08/15 07:03:09;;;;;;;16.05;14.32;;;22.40;99.90;;;;;;5025716;28;20124;-41
2022/08/15 07:05:50;;;;;;;21.90;15.30;;;22.50;99.90;;;;;;5025748;28;20045;-41
2022/08/15 07:08:25;;;;;;;17.90;14.60;;;22.70;99.90;;;;;;5026306;28;20041;-41
2022/08/15 07:11:00;;;;;;;16.63;13.50;;;22.80;99.90;;;;;;5025384;28;20416;-42
2022/08/15 07:13:46;;;;;;;14.80;13.20;;;23.00;99.90;;;;;;5025789;28;20071;-41
2022/08/15 07:16:53;;;;;;;12.45;11.20;;;23.00;99.90;;;;;;5025953;28;20046;-42
2022/08/15 07:19:19;;;;;;;12.40;11.20;;;23.10;99.90;;;;;;5015425;28;20332;-42
2022/08/15 07:21:44;;;;;;;13.57;12.23;;;23.10;99.90;;;;;;5025840;28;20099;-42
2022/08/15 07:24:16;;;;;;;12.98;10.60;;;23.10;99.90;;;;;;5026788;28;20045;-42
2022/08/15 07:27:08;;;;;;;11.15;10.05;;;23.10;99.90;;;;;;5025987;28;20055;-42
2022/08/15 07:29:36;;;;;;;12.25;11.05;;;23.10;99.60;;;;;;5024937;28;20506;-42
2022/08/15 07:32:08;;;;;;;12.25;10.02;;;23.10;99.30;;;;;;5025784;28;20037;-41
2022/08/15 07:34:36;;;;;;;14.52;10.77;;;23.20;98.90;;;;;;5025079;28;20080;-42
2022/08/15 07:37:06;;;;;;;12.02;10.00;;;23.20;98.60;;;;;;5024485;28;20052;-42
2022/08/15 07:39:41;;;;;;;12.75;10.10;;;23.20;98.40;;;;;;5006876;28;20045;-42
2022/08/15 07:42:25;;;;;;;11.18;10.07;;;23.30;98.50;;;;;;5022910;28;20056;-42
2022/08/15 07:44:57;;;;;;;11.10;9.50;;;23.40;98.30;;;;;;5024729;28;20037;-42
2022/08/15 07:47:28;;;;;;;10.93;8.68;;;23.40;98.30;;;;;;5024972;28;20112;-42
2022/08/15 07:49:58;;;;;;;;;;;23.40;98.00;;;;;;5025357;28;20041;-41
2022/08/15 07:52:24;;;;;;;10.13;9.20;;;23.50;98.00;;;;;;5022872;28;19928;-42
2022/08/15 07:55:12;;;;;;;11.93;8.20;;;23.60;97.80;;;;;;5024837;28;20128;-42
2022/08/15 07:57:41;;;;;;;12.57;8.55;;;23.90;97.20;;;;;;5025289;28;20041;-42
2022/08/15 08:00:13;;;;;;;8.50;7.72;;;24.30;96.80;;;;;;5023687;28;20052;-41
2022/08/15 08:03:20;;;;;;;8.52;7.75;;;24.70;95.20;;;;;;5024838;28;20142;-43
2022/08/15 08:06:17;;;;;;;12.68;8.40;;;25.20;93.70;;;;;;5025239;28;20048;-42
2022/08/15 08:09:20;;;;;;;8.00;6.32;;;25.60;92.90;;;;;;5022403;28;20095;-42
2022/08/15 08:11:46;;;;;;;9.43;6.40;;;25.80;91.10;;;;;;5024721;28;20053;-40
2022/08/15 08:14:35;;;;;;;9.85;5.75;;;26.20;90.80;;;;;;5028601;28;20127;-42
2022/08/15 08:17:26;;;;;;;7.90;6.35;;;26.50;88.10;;;;;;5025250;28;20048;-42
2022/08/15 08:20:12;;;;;;;8.43;5.93;;;26.80;86.50;;;;;;5025899;28;20084;-42
2022/08/15 08:23:11;;;;;;;11.60;5.38;;;27.00;87.20;;;;;;5009638;28;20052;-40
2022/08/15 08:25:52;;;;;;;6.55;5.95;;;27.20;82.90;;;;;;5021936;28;20124;-42
2022/08/15 08:28:21;;;;;;;7.53;4.78;;;27.40;83.00;;;;;;5023597;28;20068;-42
2022/08/15 08:31:12;;;;;;;6.95;5.00;;;27.50;82.00;;;;;;5025574;28;20041;-42
2022/08/15 08:33:56;;;;;;;7.63;4.90;;;27.60;81.10;;;;;;5026415;28;20068;-42
2022/08/15 08:36:41;;;;;;;6.00;5.40;;;27.90;79.80;;;;;;5026237;28;20566;-42
2022/08/15 08:39:42;;;;;;;8.35;4.85;;;28.30;78.80;;;;;;5026166;28;20423;-42
2022/08/15 08:42:34;;;;;;;5.37;4.13;;;30.00;77.60;;;;;;5025773;28;20045;-42
2022/08/15 08:45:15;;;;;;;5.38;4.20;;;30.70;71.60;;;;;;5025736;28;20064;-42
2022/08/15 08:48:07;;;;;;;5.03;4.53;;;31.60;69.90;;;;;;5025110;28;20037;-42
2022/08/15 08:50:53;;;;;;;6.05;5.15;;;32.20;66.70;;;;;;5026024;28;20045;-42
2022/08/15 08:53:44;;;;;;;7.72;4.80;;;33.10;64.90;;;;;;5026283;28;20053;-42
2022/08/15 08:56:21;;;;;;;5.17;4.67;;;33.90;61.40;;;;;;5006769;28;20064;-42
2022/08/15 08:58:53;;;;;;;6.88;5.22;;;34.80;62.00;;;;;;5026982;28;20283;-42
2022/08/15 09:01:25;;;;;;;5.75;4.63;;;35.80;58.90;;;;;;5027201;28;20049;-42
2022/08/15 09:03:59;;;;;;;6.75;4.57;;;36.20;56.60;;;;;;5027377;28;20168;-43
2022/08/15 09:06:31;;;;;;;5.80;4.57;;;36.90;57.40;;;;;;5025322;28;20399;-42
2022/08/15 09:09:05;;;;;;;6.82;4.22;;;37.20;55.40;;;;;;5014745;28;20063;-41
2022/08/15 09:11:42;;;;;;;7.93;4.38;;;37.00;53.80;;;;;;5026670;28;20050;-43
2022/08/15 09:14:23;;;;;;;7.90;4.57;;;37.10;54.70;;;;;;5026411;28;20466;-43
2022/08/15 09:16:52;;;;;;;5.25;3.92;;;37.60;52.90;;;;;;5026857;28;20159;-42
2022/08/15 09:19:28;;;;;;;4.93;4.07;;;38.20;53.40;;;;;;5026779;28;20038;-43
2022/08/15 09:21:54;;;;;;;5.85;4.28;;;38.30;51.60;;;;;;5026462;28;20439;-43
2022/08/15 09:24:21;;;;;;;4.15;3.75;;;38.30;52.00;;;;;;5026255;28;20107;-42
2022/08/15 09:26:55;;;;;;;5.85;4.25;;;38.30;51.30;;;;;;5026142;28;20049;-42
2022/08/15 09:29:26;;;;;;;4.22;3.90;;;38.70;50.50;;;;;;5027355;28;20056;-43
2022/08/15 09:32:22;;;;;;;5.05;3.63;;;38.70;49.70;;;;;;5027083;28;20475;-42
2022/08/15 09:35:00;;;;;;;3.47;3.17;;;38.60;50.00;;;;;;5027494;28;20042;-42
2022/08/15 09:38:20;;;;;;;4.20;3.78;;;38.90;48.70;;;;;;5027199;28;20042;-43
2022/08/15 09:40:49;;;;;;;5.40;4.00;;;38.80;50.40;;;;;;4951597;28;20162;-42
2022/08/15 09:43:25;;;;;;;5.20;3.92;;;37.90;49.20;;;;;;5010645;28;20052;-43
2022/08/15 09:46:24;;;;;;;4.18;3.45;;;37.00;49.80;;;;;;5024053;28;20049;-42
2022/08/15 09:49:03;;;;;;;6.53;3.83;;;36.10;50.70;;;;;;5026382;28;20400;-42
2022/08/15 09:51:48;;;;;;;4.70;3.80;;;35.30;51.50;;;;;;5027374;28;20061;-43
2022/08/15 09:54:20;;;;;;;8.20;4.05;;;34.60;52.10;;;;;;5027533;28;20045;-42
2022/08/15 09:56:46;;;;;;;4.40;3.97;;;34.00;52.90;;;;;;4990705;28;20103;-43
2022/08/15 09:59:20;;;;;;;4.68;3.55;;;33.40;53.50;;;;;;5022833;28;20468;-43
2022/08/15 10:01:51;;;;;;;5.88;4.60;;;33.10;54.90;;;;;;5025189;28;20049;-42
2022/08/15 10:04:22;;;;;;;6.68;4.40;;;32.80;56.30;;;;;;5024607;28;20045;-42
2022/08/15 10:07:02;;;;;;;4.85;3.45;;;32.60;56.80;;;;;;5025080;28;20395;-42
2022/08/15 10:09:31;;;;;;;4.68;3.58;;;32.30;57.10;;;;;;5024338;28;20061;-42
2022/08/15 10:12:00;;;;;;;4.85;4.40;;;31.80;58.30;;;;;;5023337;28;20227;-41
2022/08/15 10:14:40;;;;;;;4.25;3.85;;;31.60;58.90;;;;;;5023463;28;20073;-41
2022/08/15 10:17:34;;;;;;;6.65;4.07;;;31.50;58.90;;;;;;5011773;28;20056;-42
2022/08/15 10:20:16;;;;;;;4.93;4.10;;;31.70;59.70;;;;;;5023529;28;20049;-41
2022/08/15 10:22:59;;;;;;;4.50;4.07;;;31.90;58.40;;;;;;5013512;28;20044;-42
2022/08/15 10:25:25;;;;;;;4.57;4.18;;;32.20;57.70;;;;;;5023862;28;20403;-42
2022/08/15 10:28:09;;;;;;;6.93;3.97;;;32.40;56.80;;;;;;5023537;28;20045;-42
2022/08/15 10:30:46;;;;;;;5.60;3.97;;;32.50;56.00;;;;;;5022470;28;20037;-42
2022/08/15 10:33:30;;;;;;;4.20;3.80;;;32.60;56.90;;;;;;5021891;28;20040;-41
2022/08/15 10:36:28;;;;;;;5.38;4.30;;;32.50;56.00;;;;;;5021277;28;20491;-42
2022/08/15 10:39:16;;;;;;;5.07;4.57;;;32.30;56.30;;;;;;5000143;28;20049;-43
2022/08/15 10:41:57;;;;;;;6.28;4.97;;;32.00;57.60;;;;;;5021094;28;20052;-42
2022/08/15 10:44:46;;;;;;;8.43;6.28;;;31.70;59.20;;;;;;5021979;28;20056;-42
2022/08/15 10:47:37;;;;;;;5.63;5.07;;;31.50;60.80;;;;;;5020460;28;20045;-42
2022/08/15 10:50:12;;;;;;;6.70;5.32;;;31.30;61.40;;;;;;5021830;28;20124;-41
2022/08/15 10:52:51;;;;;;;8.07;7.13;;;31.00;61.80;;;;;;5021228;28;20044;-42
2022/08/15 10:55:24;;;;;;;6.72;6.13;;;30.90;62.20;;;;;;5020714;28;20040;-41
2022/08/15 10:57:55;;;;;;;7.90;7.10;;;30.80;63.50;;;;;;5013652;28;20056;-42
2022/08/15 11:00:43;;;;;;;8.93;8.20;;;30.70;63.40;;;;;;5021118;28;20067;-42
2022/08/15 11:03:32;;;;;;;8.15;7.35;;;30.50;63.90;;;;;;5022499;28;20151;-42
2022/08/15 11:06:06;;;;;;;9.80;8.80;;;30.30;64.80;;;;;;5019948;28;20476;-42
2022/08/15 11:08:34;;;;;;;8.38;7.35;;;30.10;65.40;;;;;;5022771;28;20075;-42
2022/08/15 11:11:07;;;;;;;12.07;8.43;;;29.90;66.20;;;;;;5022311;28;20142;-41
2022/08/15 11:13:35;;;;;;;8.07;7.32;;;29.70;67.40;;;;;;5023407;28;20609;-41
2022/08/15 11:16:32;;;;;;;9.80;7.63;;;29.50;68.30;;;;;;5023286;28;20475;-42
2022/08/15 11:19:00;;;;;;;10.40;8.40;;;29.40;68.80;;;;;;5003355;28;20054;-41
2022/08/15 11:21:40;;;;;;;8.98;8.07;;;29.20;70.00;;;;;;5003884;28;20046;-41
2022/08/15 11:24:08;;;;;;;10.60;7.38;;;29.20;71.00;;;;;;5003657;28;20042;-40
2022/08/15 11:26:40;;;;;;;7.43;6.63;;;29.20;70.80;;;;;;5004149;28;20471;-41
2022/08/15 11:29:09;;;;;;;6.57;5.97;;;29.30;71.30;;;;;;4968897;28;20041;-41
2022/08/15 11:31:50;;;;;;;8.00;7.28;;;29.30;71.00;;;;;;5003385;28;20050;-42
2022/08/15 11:34:31;;;;;;;;;;;29.40;71.00;;;;;;5003320;28;20041;-42
2022/08/15 11:37:04;;;;;;;6.17;5.57;;;29.30;71.10;;;;;;5003164;28;19927;-42
2022/08/15 11:39:31;;;;;;;7.32;6.20;;;29.30;70.70;;;;;;5002677;28;20539;-42
2022/08/15 11:42:04;;;;;;;8.50;6.53;;;29.20;70.70;;;;;;5002808;28;20054;-42
2022/08/15 11:44:45;;;;;;;10.43;7.97;;;29.10;71.20;;;;;;5003000;28;20090;-42
2022/08/15 11:47:15;;;;;;;7.82;7.20;;;28.90;72.00;;;;;;5005521;28;20526;-42
2022/08/15 11:49:54;;;;;;;9.05;8.13;;;28.70;72.70;;;;;;5006831;28;20097;-41
2022/08/15 11:52:32;;;;;;;7.57;5.63;;;28.50;73.20;;;;;;5006799;28;20377;-42
2022/08/15 11:55:08;;;;;;;6.97;6.38;;;28.30;73.40;;;;;;5006871;28;20038;-42
2022/08/15 11:57:44;;;;;;;7.47;6.70;;;28.20;74.00;;;;;;4998724;28;20115;-42
2022/08/15 12:00:41;;;;;;;10.00;7.60;;;28.10;75.10;;;;;;5006854;28;20053;-42
2022/08/15 12:03:20;;;;;;;8.40;6.57;;;28.10;75.50;;;;;;5006698;28;20504;-42
2022/08/15 12:05:49;;;;;;;7.10;5.95;;;28.20;75.00;;;;;;5007279;28;20085;-42
2022/08/15 12:08:28;;;;;;;5.80;4.95;;;28.40;75.20;;;;;;5007197;28;20103;-42
2022/08/15 12:11:07;;;;;;;10.02;7.05;;;28.60;74.20;;;;;;5025612;28;20063;-42
2022/08/15 12:13:33;;;;;;;5.40;4.90;;;28.80;74.10;;;;;;5027127;28;20076;-42
2022/08/15 12:16:00;;;;;;;7.80;6.55;;;28.90;73.20;;;;;;5026610;28;20076;-41
2022/08/15 12:18:26;;;;;;;6.95;5.55;;;29.10;72.60;;;;;;5025871;28;20179;-42
2022/08/15 12:20:54;;;;;;;6.97;6.15;;;29.30;72.20;;;;;;5026404;28;20045;-42
2022/08/15 12:23:30;;;;;;;7.32;6.65;;;29.50;72.70;;;;;;5025288;28;20047;-42
2022/08/15 12:26:03;;;;;;;9.95;8.00;;;29.50;72.50;;;;;;5025445;28;20575;-42
2022/08/15 12:28:30;;;;;;;8.32;7.30;;;29.70;72.20;;;;;;5003912;28;20096;-42
2022/08/15 12:31:20;;;;;;;11.50;8.10;;;29.80;71.90;;;;;;5025578;28;20442;-42
2022/08/15 12:33:47;;;;;;;8.50;7.70;;;29.80;70.10;;;;;;5023531;28;20046;-42
2022/08/15 12:36:13;;;;;;;9.75;8.80;;;29.90;69.50;;;;;;5025776;28;20041;-42
2022/08/15 12:38:39;;;;;;;9.52;8.13;;;29.90;68.40;;;;;;5007847;28;20046;-42
2022/08/15 12:41:06;;;;;;;9.98;7.82;;;29.90;67.10;;;;;;5025973;28;20123;-42
2022/08/15 12:43:34;;;;;;;8.05;7.32;;;29.90;69.70;;;;;;5025338;28;20056;-42
2022/08/15 12:46:00;;;;;;;9.85;7.85;;;30.00;69.90;;;;;;5025652;28;20530;-42
2022/08/15 12:48:28;;;;;;;8.15;6.63;;;30.00;68.90;;;;;;5007297;28;20444;-42
2022/08/15 12:50:55;;;;;;;6.45;5.85;;;30.10;70.40;;;;;;5025255;28;20052;-42
2022/08/15 12:53:20;;;;;;;6.85;6.25;;;30.10;70.80;;;;;;5025072;28;20438;-42
2022/08/15 12:55:47;;;;;;;6.40;5.75;;;30.10;70.50;;;;;;5025378;28;20355;-42
2022/08/15 12:58:17;;;;;;;6.53;4.75;;;30.10;71.10;;;;;;5026140;28;20484;-42
2022/08/15 13:00:45;;;;;;;6.47;5.88;;;30.20;70.50;;;;;;5028282;28;20068;-42
2022/08/15 13:03:22;;;;;;;6.93;6.07;;;30.10;69.70;;;;;;5027235;28;20077;-42
2022/08/15 13:05:53;;;;;;;5.25;4.80;;;30.10;70.30;;;;;;5027620;28;20048;-43
2022/08/15 13:08:19;;;;;;;6.43;5.82;;;30.00;69.70;;;;;;5025741;28;20049;-41
2022/08/15 13:10:45;;;;;;;8.50;7.00;;;30.00;69.80;;;;;;5026897;28;20050;-43
2022/08/15 13:13:12;;;;;;;7.85;6.88;;;30.00;69.60;;;;;;5027970;28;20034;-42